createdAt,value
2022-08-23T00:02:26.235Z,18.41
2022-08-23T00:05:08.033Z,18.02
2022-08-23T00:07:42.034Z,17.79
2022-08-23T00:10:11.335Z,17.84
2022-08-23T00:12:38.056Z,17.81
2022-08-23T00:15:05.454Z,17.84
2022-08-23T00:17:34.294Z,17.70
2022-08-23T00:20:06.367Z,17.72
2022-08-23T00:22:33.339Z,17.73
2022-08-23T00:24:59.790Z,17.76
2022-08-23T00:27:26.900Z,17.71
2022-08-23T00:29:55.253Z,17.57
2022-08-23T00:32:28.905Z,17.59
2022-08-23T00:34:56.422Z,17.45
2022-08-23T00:37:24.611Z,17.59
2022-08-23T00:39:51.924Z,17.65
2022-08-23T00:43:14.943Z,17.45
2022-08-23T00:46:21.098Z,17.45
2022-08-23T00:48:47.893Z,17.25
2022-08-23T00:51:22.466Z,17.26
2022-08-23T00:53:53.561Z,17.17
2022-08-23T00:56:22.984Z,16.92
2022-08-23T00:58:50.204Z,16.78
2022-08-23T01:01:18.357Z,16.88
2022-08-23T01:03:59.094Z,16.90
2022-08-23T01:06:58.350Z,17.06
2022-08-23T01:09:25.799Z,16.91
2022-08-23T01:12:07.530Z,16.82
2022-08-23T01:15:01.566Z,16.89
2022-08-23T01:17:38.317Z,16.78
2022-08-23T01:20:12.945Z,16.60
2022-08-23T01:22:55.189Z,16.56
2022-08-23T01:25:24.533Z,16.62
2022-08-23T01:27:51.976Z,16.67
2022-08-23T01:30:23.318Z,16.57
2022-08-23T01:32:56.353Z,16.62
2022-08-23T01:35:30.976Z,16.51
2022-08-23T01:37:57.540Z,16.69
2022-08-23T01:40:24.331Z,16.76
2022-08-23T01:42:51.585Z,16.65
2022-08-23T01:45:18.134Z,16.63
2022-08-23T01:47:44.706Z,16.69
2022-08-23T01:50:13.126Z,16.70
2022-08-23T01:52:47.174Z,16.72
2022-08-23T01:55:16.614Z,16.58
2022-08-23T01:57:48.348Z,16.50
2022-08-23T02:00:19.804Z,16.30
2022-08-23T02:02:47.123Z,16.43
2022-08-23T02:05:14.434Z,16.24
2022-08-23T02:07:46.982Z,15.82
2022-08-23T02:10:14.650Z,15.74
2022-08-23T02:12:41.351Z,15.58
2022-08-23T02:15:13.814Z,15.63
2022-08-23T02:17:44.352Z,15.42
2022-08-23T02:20:11.945Z,15.27
2022-08-23T02:22:39.465Z,15.42
2022-08-23T02:25:07.197Z,15.27
2022-08-23T02:27:33.736Z,15.29
2022-08-23T02:30:02.136Z,15.39
2022-08-23T02:32:29.706Z,15.46
2022-08-23T02:35:04.863Z,15.45
2022-08-23T02:37:34.209Z,15.34
2022-08-23T02:40:00.989Z,15.45
2022-08-23T02:42:28.611Z,15.34
2022-08-23T02:44:55.477Z,15.14
2022-08-23T02:47:22.202Z,15.04
2022-08-23T02:50:06.186Z,14.98
2022-08-23T02:52:33.710Z,15.02
2022-08-23T02:55:00.501Z,14.93
2022-08-23T02:57:27.795Z,14.88
2022-08-23T02:59:59.153Z,14.75
2022-08-23T03:02:25.707Z,14.67
2022-08-23T03:04:52.355Z,14.42
2022-08-23T03:07:19.270Z,14.40
2022-08-23T03:09:46.210Z,14.37
2022-08-23T03:12:12.964Z,14.24
2022-08-23T03:14:43.865Z,14.48
2022-08-23T03:17:11.206Z,14.24
2022-08-23T03:19:37.988Z,14.14
2022-08-23T03:22:04.648Z,14.01
2022-08-23T03:24:31.284Z,14.05
2022-08-23T03:26:59.585Z,14.13
2022-08-23T03:29:26.159Z,14.28
2022-08-23T03:31:59.636Z,14.33
2022-08-23T03:34:27.461Z,14.23
2022-08-23T03:36:54.280Z,14.15
2022-08-23T03:39:20.742Z,14.25
2022-08-23T03:41:48.216Z,14.33
2022-08-23T03:44:14.970Z,14.31
2022-08-23T03:46:43.893Z,14.25
2022-08-23T03:49:10.536Z,14.04
2022-08-23T03:51:58.297Z,13.57
2022-08-23T03:54:24.886Z,13.61
2022-08-23T03:56:59.678Z,13.71
2022-08-23T03:59:30.121Z,13.79
2022-08-23T04:01:57.133Z,13.99
2022-08-23T04:04:23.704Z,14.07
2022-08-23T04:07:20.813Z,14.17
2022-08-23T04:09:54.829Z,14.20
2022-08-23T04:12:23.353Z,14.06
2022-08-23T04:14:49.802Z,14.01
2022-08-23T04:17:17.794Z,13.85
2022-08-23T04:19:44.391Z,13.88
2022-08-23T04:22:13.657Z,13.59
2022-08-23T04:24:41.955Z,13.41
2022-08-23T04:27:08.574Z,13.48
2022-08-23T04:29:35.164Z,13.57
2022-08-23T04:32:05.245Z,13.52
2022-08-23T04:34:34.855Z,13.64
2022-08-23T04:37:02.102Z,13.72
2022-08-23T04:39:29.326Z,13.78
2022-08-23T04:42:15.898Z,13.80
2022-08-23T04:44:43.636Z,13.59
2022-08-23T04:47:10.174Z,13.66
2022-08-23T04:49:36.732Z,13.51
2022-08-23T04:52:03.658Z,13.28
2022-08-23T04:54:31.489Z,13.36
2022-08-23T04:57:18.670Z,13.38
2022-08-23T04:59:45.612Z,13.44
2022-08-23T05:02:12.469Z,13.52
2022-08-23T05:04:39.152Z,13.50
2022-08-23T05:07:05.645Z,13.57
2022-08-23T05:09:33.297Z,13.65
2022-08-23T05:11:59.732Z,13.67
2022-08-23T05:14:27.997Z,13.66
2022-08-23T05:16:54.902Z,13.73
2022-08-23T05:19:24.797Z,13.80
2022-08-23T05:21:56.359Z,13.68
2022-08-23T05:24:27.990Z,13.67
2022-08-23T05:26:54.427Z,13.52
2022-08-23T05:29:21.465Z,13.55
2022-08-23T05:31:50.362Z,13.67
2022-08-23T05:34:22.444Z,13.80
2022-08-23T05:36:56.482Z,13.92
2022-08-23T05:39:36.448Z,14.01
2022-08-23T05:42:11.278Z,14.20
2022-08-23T05:44:38.255Z,14.88
2022-08-23T05:47:10.642Z,15.39
2022-08-23T05:49:45.007Z,15.89
2022-08-23T05:52:13.572Z,16.41
2022-08-23T05:54:42.627Z,16.87
2022-08-23T05:57:24.514Z,17.37
2022-08-23T05:59:50.994Z,17.76
2022-08-23T06:02:17.432Z,18.14
2022-08-23T06:04:43.949Z,18.53
2022-08-23T06:07:11.661Z,18.86
2022-08-23T06:09:39.060Z,19.27
2022-08-23T06:12:05.724Z,19.64
2022-08-23T06:14:32.323Z,19.96
2022-08-23T06:16:58.980Z,20.17
2022-08-23T06:19:27.254Z,20.51
2022-08-23T06:22:12.172Z,20.80
2022-08-23T06:24:41.667Z,21.06
2022-08-23T06:27:13.873Z,21.31
2022-08-23T06:29:41.148Z,21.69
2022-08-23T06:32:26.147Z,22.04
2022-08-23T06:35:38.223Z,22.16
2022-08-23T06:38:09.552Z,22.19
2022-08-23T06:40:49.063Z,22.27
2022-08-23T06:43:24.320Z,22.45
2022-08-23T06:46:08.966Z,22.59
2022-08-23T06:48:35.397Z,22.75
2022-08-23T06:51:02.002Z,22.96
2022-08-23T06:54:03.234Z,23.18
2022-08-23T06:57:01.071Z,23.37
2022-08-23T06:59:31.189Z,23.49
2022-08-23T07:02:21.209Z,23.70
2022-08-23T07:05:07.947Z,23.88
2022-08-23T07:07:44.295Z,24.01
2022-08-23T07:10:14.318Z,23.49
2022-08-23T07:12:42.729Z,23.73
2022-08-23T07:15:11.558Z,23.93
2022-08-23T07:17:38.656Z,24.16
2022-08-23T07:20:05.796Z,24.16
2022-08-23T07:22:34.904Z,24.49
2022-08-23T07:25:03.861Z,24.28
2022-08-23T07:27:31.446Z,24.70
2022-08-23T07:30:02.564Z,24.69
2022-08-23T07:32:30.048Z,25.26
2022-08-23T07:34:58.301Z,25.55
2022-08-23T07:37:26.320Z,25.95
2022-08-23T07:39:52.906Z,26.25
2022-08-23T07:42:25.322Z,26.43
2022-08-23T07:44:54.872Z,26.69
2022-08-23T07:47:24.208Z,26.87
2022-08-23T07:49:54.282Z,27.00
2022-08-23T07:52:20.853Z,27.19
2022-08-23T07:54:48.546Z,27.34
2022-08-23T07:57:45.506Z,27.15
2022-08-23T08:00:30.348Z,27.52
2022-08-23T08:03:25.540Z,27.76
2022-08-23T08:06:11.689Z,28.08
2022-08-23T08:08:40.975Z,28.23
2022-08-23T08:11:09.270Z,28.27
2022-08-23T08:13:38.508Z,28.30
2022-08-23T08:16:06.551Z,28.40
2022-08-23T08:18:35.962Z,28.26
2022-08-23T08:21:21.294Z,28.19
2022-08-23T08:23:58.797Z,28.54
2022-08-23T08:26:36.980Z,28.96
2022-08-23T08:29:04.548Z,29.11
2022-08-23T08:31:34.549Z,29.35
2022-08-23T08:34:01.209Z,29.63
2022-08-23T08:36:49.426Z,29.60
2022-08-23T08:39:22.176Z,29.69
2022-08-23T08:42:20.556Z,29.81
2022-08-23T08:44:55.131Z,29.78
2022-08-23T08:47:54.044Z,29.65
2022-08-23T08:50:36.905Z,29.80
2022-08-23T08:53:22.257Z,30.15
2022-08-23T08:56:32.909Z,30.37
2022-08-23T08:59:16.099Z,30.47
2022-08-23T09:01:42.677Z,30.68
2022-08-23T09:04:13.672Z,30.71
2022-08-23T09:07:07.840Z,30.77
2022-08-23T09:09:50.027Z,31.14
2022-08-23T09:12:25.730Z,30.35
2022-08-23T09:15:19.773Z,30.37
2022-08-23T09:17:55.889Z,30.69
2022-08-23T09:20:32.994Z,30.70
2022-08-23T09:23:31.938Z,30.97
2022-08-23T09:26:03.858Z,30.93
2022-08-23T09:28:36.960Z,31.06
2022-08-23T09:31:08.325Z,31.00
2022-08-23T09:33:42.052Z,31.30
2022-08-23T09:36:26.506Z,31.17
2022-08-23T09:39:23.160Z,30.70
2022-08-23T09:42:00.713Z,30.67
2022-08-23T09:44:45.386Z,30.63
2022-08-23T09:47:17.096Z,30.79
2022-08-23T09:49:52.406Z,30.91
2022-08-23T09:52:37.586Z,30.75
2022-08-23T09:55:10.664Z,30.70
2022-08-23T09:57:48.022Z,30.84
2022-08-23T10:00:17.349Z,30.84
2022-08-23T10:02:49.157Z,30.90
2022-08-23T10:05:30.529Z,31.21
2022-08-23T10:08:02.708Z,31.31
2022-08-23T10:10:37.302Z,31.42
2022-08-23T10:13:06.248Z,31.50
2022-08-23T10:15:45.263Z,31.45
2022-08-23T10:18:29.747Z,31.79
2022-08-23T10:21:21.152Z,31.69
2022-08-23T10:24:19.687Z,31.45
2022-08-23T10:26:52.306Z,31.60
2022-08-23T10:29:40.979Z,31.14
2022-08-23T10:32:25.559Z,30.62
2022-08-23T10:35:17.776Z,29.95
2022-08-23T10:38:03.606Z,29.76
2022-08-23T10:40:45.876Z,29.66
2022-08-23T10:43:26.045Z,29.92
2022-08-23T10:46:00.232Z,29.82
2022-08-23T10:48:54.787Z,30.19
2022-08-23T10:51:31.886Z,30.66
2022-08-23T10:54:07.552Z,31.02
2022-08-23T10:56:35.324Z,31.02
2022-08-23T10:59:26.192Z,30.91
2022-08-23T11:02:15.399Z,30.54
2022-08-23T11:05:00.944Z,30.15
2022-08-23T11:07:38.967Z,30.47
2022-08-23T11:10:26.285Z,30.73
2022-08-23T11:13:00.599Z,30.69
2022-08-23T11:15:41.385Z,30.43
2022-08-23T11:18:34.850Z,29.89
2022-08-23T11:21:05.466Z,29.88
2022-08-23T11:23:45.148Z,29.65
2022-08-23T11:26:39.777Z,29.56
2022-08-23T11:29:07.142Z,29.50
2022-08-23T11:31:50.374Z,29.76
2022-08-23T11:34:25.830Z,30.10
2022-08-23T11:37:18.970Z,30.36
2022-08-23T11:39:59.739Z,30.56
2022-08-23T11:42:38.144Z,30.62
2022-08-23T11:45:27.358Z,30.68
2022-08-23T11:48:37.186Z,30.86
2022-08-23T11:51:17.972Z,31.06
2022-08-23T11:53:54.158Z,31.18
2022-08-23T11:56:26.650Z,31.17
2022-08-23T11:59:15.439Z,30.84
2022-08-23T12:01:44.798Z,30.27
2022-08-23T12:04:26.396Z,30.35
2022-08-23T12:07:01.640Z,29.69
2022-08-23T12:09:28.024Z,30.16
2022-08-23T12:11:57.631Z,30.39
2022-08-23T12:14:42.366Z,29.91
2022-08-23T12:17:11.831Z,29.85
2022-08-23T12:19:42.013Z,29.95
2022-08-23T12:22:21.629Z,30.31
2022-08-23T12:24:54.733Z,30.45
2022-08-23T12:27:41.967Z,30.51
2022-08-23T12:30:20.627Z,30.19
2022-08-23T12:32:47.209Z,29.98
2022-08-23T12:35:38.461Z,30.06
2022-08-23T12:38:17.796Z,30.08
2022-08-23T12:40:50.620Z,29.97
2022-08-23T12:43:22.829Z,30.19
2022-08-23T12:45:55.698Z,30.12
2022-08-23T12:48:25.697Z,30.07
2022-08-23T12:50:58.855Z,30.36
2022-08-23T12:53:33.790Z,30.45
2022-08-23T12:56:22.781Z,30.41
2022-08-23T12:59:03.322Z,30.33
2022-08-23T13:01:34.422Z,30.39
2022-08-23T13:04:14.234Z,30.38
2022-08-23T13:06:46.742Z,29.96
2022-08-23T13:09:38.247Z,29.80
2022-08-23T13:12:06.940Z,29.73
2022-08-23T13:14:48.516Z,29.84
2022-08-23T13:17:27.177Z,30.02
2022-08-23T13:20:22.885Z,30.19
2022-08-23T13:22:56.765Z,30.34
2022-08-23T13:25:36.467Z,30.42
2022-08-23T13:28:26.211Z,30.44
2022-08-23T13:31:05.878Z,30.72
2022-08-23T13:33:32.485Z,30.97
2022-08-23T13:36:17.260Z,31.16
2022-08-23T13:38:44.798Z,31.29
2022-08-23T13:41:39.015Z,31.45
2022-08-23T13:44:08.249Z,31.44
2022-08-23T13:46:43.302Z,31.51
2022-08-23T13:49:28.376Z,31.61
2022-08-23T13:52:24.607Z,31.43
2022-08-23T13:54:51.274Z,31.15
2022-08-23T13:57:21.081Z,31.11
2022-08-23T13:59:53.429Z,30.98
2022-08-23T14:02:22.705Z,31.11
2022-08-23T14:04:49.349Z,31.16
2022-08-23T14:07:16.053Z,30.51
2022-08-23T14:09:42.615Z,30.38
2022-08-23T14:12:14.385Z,30.48
2022-08-23T14:14:41.954Z,30.27
2022-08-23T14:17:12.853Z,30.29
2022-08-23T14:22:33.270Z,30.43
2022-08-23T14:24:59.710Z,30.42
2022-08-23T14:27:26.127Z,30.45
2022-08-23T14:29:52.585Z,30.55
2022-08-23T14:32:19.044Z,30.59
2022-08-23T14:34:45.435Z,30.69
2022-08-23T14:39:58.648Z,30.63
2022-08-23T14:42:25.319Z,30.71
2022-08-23T14:44:51.821Z,30.74
2022-08-23T14:47:19.123Z,30.71
2022-08-23T14:49:46.448Z,30.77
2022-08-23T14:52:14.927Z,30.65
2022-08-23T14:54:42.006Z,30.58
2022-08-23T14:57:09.772Z,30.52
2022-08-23T14:59:36.301Z,30.49
2022-08-23T15:02:06.529Z,30.53
2022-08-23T15:04:34.578Z,30.43
2022-08-23T15:07:18.908Z,30.54
2022-08-23T15:09:50.572Z,30.50
2022-08-23T15:15:12.534Z,30.40
2022-08-23T15:17:47.522Z,30.42
2022-08-23T15:20:14.193Z,30.42
2022-08-23T15:22:44.947Z,30.40
2022-08-23T15:25:13.256Z,30.47
2022-08-23T15:27:39.815Z,30.44
2022-08-23T15:30:07.405Z,30.37
2022-08-23T15:32:33.842Z,30.17
2022-08-23T15:35:01.509Z,30.16
2022-08-23T15:37:28.754Z,30.16
2022-08-23T15:39:55.293Z,30.12
2022-08-23T15:42:21.727Z,29.98
2022-08-23T15:44:49.253Z,29.83
2022-08-23T15:47:26.029Z,29.85
2022-08-23T15:49:52.998Z,29.76
2022-08-23T15:52:19.953Z,29.78
2022-08-23T15:54:47.212Z,29.74
2022-08-23T15:57:21.526Z,29.75
2022-08-23T15:59:47.996Z,29.73
2022-08-23T16:02:15.149Z,29.75
2022-08-23T16:04:42.001Z,29.76
2022-08-23T16:07:12.818Z,29.71
2022-08-23T16:09:39.261Z,29.63
2022-08-23T16:12:06.406Z,29.57
2022-08-23T16:14:33.130Z,29.49
2022-08-23T16:17:00.391Z,29.51
2022-08-23T16:19:27.943Z,29.45
2022-08-23T16:21:54.996Z,29.42
2022-08-23T16:24:24.664Z,29.31
2022-08-23T16:26:52.079Z,29.34
2022-08-23T16:29:20.175Z,29.30
2022-08-23T16:31:47.286Z,29.26
2022-08-23T16:34:17.108Z,29.22
2022-08-23T16:36:46.476Z,29.20
2022-08-23T16:39:16.351Z,29.10
2022-08-23T16:41:42.818Z,29.06
2022-08-23T16:44:09.292Z,29.02
2022-08-23T16:46:36.688Z,28.99
2022-08-23T16:49:03.397Z,28.83
2022-08-23T16:51:29.876Z,28.62
2022-08-23T16:54:01.584Z,28.51
2022-08-23T16:56:33.896Z,28.43
2022-08-23T16:59:01.308Z,28.39
2022-08-23T17:01:28.605Z,28.29
2022-08-23T17:03:55.269Z,28.11
2022-08-23T17:06:21.890Z,28.01
2022-08-23T17:08:48.394Z,27.96
2022-08-23T17:11:18.433Z,27.97
2022-08-23T17:13:45.571Z,27.94
2022-08-23T17:16:12.666Z,27.83
2022-08-23T17:18:39.449Z,27.80
2022-08-23T17:21:06.738Z,27.73
2022-08-23T17:23:33.514Z,27.67
2022-08-23T17:26:05.850Z,27.57
2022-08-23T17:28:32.777Z,27.49
2022-08-23T17:30:59.409Z,27.32
2022-08-23T17:33:25.879Z,27.24
2022-08-23T17:35:52.328Z,27.22
2022-08-23T17:38:20.175Z,27.15
2022-08-23T17:40:46.900Z,27.09
2022-08-23T17:43:13.785Z,26.93
2022-08-23T17:45:44.232Z,26.72
2022-08-23T17:48:13.101Z,26.65
2022-08-23T17:50:41.982Z,26.51
2022-08-23T17:53:08.408Z,26.49
2022-08-23T17:55:36.157Z,26.46
2022-08-23T17:58:04.344Z,26.40
2022-08-23T18:00:33.473Z,26.38
2022-08-23T18:03:00.747Z,26.33
2022-08-23T18:05:29.799Z,26.28
2022-08-23T18:07:56.277Z,26.21
2022-08-23T18:10:23.348Z,25.93
2022-08-23T18:12:49.810Z,26.01
2022-08-23T18:15:16.728Z,25.95
2022-08-23T18:17:43.152Z,25.82
2022-08-23T18:20:11.396Z,25.79
2022-08-23T18:22:39.073Z,25.62
2022-08-23T18:25:09.358Z,25.48
2022-08-23T18:27:54.291Z,25.34
2022-08-23T18:30:21.403Z,25.23
2022-08-23T18:32:47.839Z,25.20
2022-08-23T18:35:14.979Z,25.17
2022-08-23T18:37:42.109Z,25.08
2022-08-23T18:40:10.329Z,24.89
2022-08-23T18:42:37.588Z,24.83
2022-08-23T18:45:05.743Z,24.75
2022-08-23T18:47:32.817Z,24.69
2022-08-23T18:49:59.320Z,24.57
2022-08-23T18:52:27.498Z,24.25
2022-08-23T18:54:57.520Z,24.04
2022-08-23T18:57:24.257Z,23.94
2022-08-23T18:59:51.285Z,23.91
2022-08-23T19:02:17.789Z,23.74
2022-08-23T19:04:44.341Z,23.66
2022-08-23T19:07:10.865Z,23.52
2022-08-23T19:09:37.909Z,23.49
2022-08-23T19:12:06.413Z,23.43
2022-08-23T19:14:35.461Z,23.49
2022-08-23T19:17:03.678Z,23.39
2022-08-23T19:19:30.353Z,23.19
2022-08-23T19:21:58.141Z,23.06
2022-08-23T19:24:25.180Z,22.88
2022-08-23T19:26:52.480Z,22.86
2022-08-23T19:29:21.102Z,22.91
2022-08-23T19:31:50.262Z,22.88
2022-08-23T19:34:20.788Z,22.76
2022-08-23T19:36:53.596Z,22.68
2022-08-23T19:39:27.334Z,22.56
2022-08-23T19:41:54.195Z,22.43
2022-08-23T19:44:21.236Z,22.23
2022-08-23T19:46:48.334Z,22.25
2022-08-23T19:49:14.931Z,22.11
2022-08-23T19:51:42.924Z,22.16
2022-08-23T19:54:13.161Z,22.07
2022-08-23T19:56:53.024Z,22.02
2022-08-23T19:59:23.727Z,21.99
2022-08-23T20:01:52.811Z,21.92
2022-08-23T20:04:21.540Z,21.88
2022-08-23T20:06:48.741Z,21.87
2022-08-23T20:09:15.867Z,21.80
2022-08-23T20:11:42.544Z,21.91
2022-08-23T20:14:09.965Z,21.80
2022-08-23T20:16:37.811Z,21.74
2022-08-23T20:19:08.834Z,21.54
2022-08-23T20:21:35.877Z,21.42
2022-08-23T20:24:03.555Z,21.44
2022-08-23T20:26:40.683Z,21.37
2022-08-23T20:29:10.175Z,21.37
2022-08-23T20:31:45.931Z,21.17
2022-08-23T20:34:12.475Z,21.28
2022-08-23T20:36:38.952Z,21.22
2022-08-23T20:39:05.815Z,21.15
2022-08-23T20:41:36.954Z,21.08
2022-08-23T20:44:05.929Z,20.99
2022-08-23T20:46:32.430Z,20.83
2022-08-23T20:48:58.973Z,20.89
2022-08-23T20:51:27.925Z,20.89
2022-08-23T20:53:55.842Z,20.85
2022-08-23T20:56:23.367Z,20.74
2022-08-23T20:58:50.346Z,20.53
2022-08-23T21:01:17.148Z,20.44
2022-08-23T21:03:43.973Z,20.27
2022-08-23T21:06:22.130Z,20.20
2022-08-23T21:08:53.534Z,20.27
2022-08-23T21:11:22.094Z,20.28
2022-08-23T21:13:48.815Z,20.31
2022-08-23T21:16:16.676Z,20.26
2022-08-23T21:18:43.895Z,20.20
2022-08-23T21:21:10.811Z,20.08
2022-08-23T21:23:38.072Z,20.03
2022-08-23T21:26:06.301Z,19.81
2022-08-23T21:28:33.454Z,19.71
2022-08-23T21:31:10.281Z,19.72
2022-08-23T21:33:40.133Z,19.58
2022-08-23T21:36:07.638Z,19.42
2022-08-23T21:38:34.917Z,19.16
2022-08-23T21:41:05.120Z,19.23
2022-08-23T21:43:32.612Z,19.23
2022-08-23T21:45:59.170Z,19.18
2022-08-23T21:48:25.702Z,18.86
2022-08-23T21:50:52.432Z,18.66
2022-08-23T21:53:19.860Z,18.83
2022-08-23T21:55:46.432Z,18.94
2022-08-23T21:58:13.442Z,18.91
2022-08-23T22:00:41.182Z,18.86
2022-08-23T22:03:09.081Z,18.76
2022-08-23T22:05:41.130Z,18.73
2022-08-23T22:08:08.017Z,18.74
2022-08-23T22:10:37.200Z,18.60
2022-08-23T22:13:05.100Z,18.72
2022-08-23T22:15:32.604Z,18.66
2022-08-23T22:18:03.196Z,18.52
2022-08-23T22:20:31.471Z,18.42
2022-08-23T22:22:58.737Z,18.40
2022-08-23T22:25:25.504Z,18.47
2022-08-23T22:27:52.892Z,18.50
2022-08-23T22:30:20.072Z,18.52
2022-08-23T22:32:46.607Z,18.44
2022-08-23T22:35:13.738Z,18.50
2022-08-23T22:38:03.579Z,18.43
2022-08-23T22:40:30.207Z,18.48
2022-08-23T22:42:56.635Z,18.44
2022-08-23T22:45:23.952Z,18.34
2022-08-23T22:47:50.472Z,18.11
2022-08-23T22:50:16.981Z,18.25
2022-08-23T22:52:43.560Z,18.32
2022-08-23T22:55:10.141Z,18.28
2022-08-23T22:57:38.753Z,18.25
2022-08-23T23:00:07.094Z,18.33
2022-08-23T23:02:37.378Z,18.27
2022-08-23T23:05:04.159Z,18.33
2022-08-23T23:07:49.297Z,18.27
2022-08-23T23:10:15.806Z,18.34
2022-08-23T23:12:42.361Z,18.32
2022-08-23T23:15:09.480Z,18.32
2022-08-23T23:17:35.979Z,18.32
2022-08-23T23:20:22.023Z,18.04
2022-08-23T23:22:48.495Z,18.04
2022-08-23T23:25:14.916Z,17.93
2022-08-23T23:27:41.322Z,17.78
2022-08-23T23:30:09.824Z,17.76
2022-08-23T23:32:36.246Z,17.81
2022-08-23T23:35:02.855Z,17.92
2022-08-23T23:37:30.199Z,17.94
2022-08-23T23:39:56.966Z,17.92
2022-08-23T23:42:23.510Z,17.57
2022-08-23T23:44:50.108Z,17.55
2022-08-23T23:47:17.720Z,17.33
2022-08-23T23:49:44.690Z,17.25
2022-08-23T23:52:11.219Z,17.25
2022-08-23T23:54:38.412Z,17.19
2022-08-23T23:57:06.023Z,17.18
2022-08-23T23:59:33.902Z,16.68
